Time;durP1;ratioP1;P1;durP2;ratioP2;P2;SDS_P1;SDS_P2;PMS_P1;PMS_P2;Temp;Humidity;BMP_temperature;BMP_pressure;BME280_temperature;BME280_humidity;BME280_pressure;Samples;Min_cycle;Max_cycle;Signal;HPM_P1;HPM_P2
2022/08/19 00:02:06;;;;;;;19.17;17.10;;;;;;;;;;4937784;28;20208;-70
2022/08/19 00:04:35;;;;;;;17.77;16.00;;;;;;;;;;4952563;28;20481;-71
2022/08/19 00:07:01;;;;;;;18.90;16.87;;;;;;;;;;4936027;29;20230;-70
2022/08/19 00:09:26;;;;;;;18.67;16.53;;;;;;;;;;4942776;28;20210;-70
2022/08/19 00:11:52;;;;;;;20.23;16.73;;;;;;;;;;4954679;28;20165;-71
2022/08/19 00:14:17;;;;;;;18.17;16.13;;;;;;;;;;4938879;29;20198;-70
2022/08/19 00:16:44;;;;;;;17.93;16.07;;;;;;;;;;4950140;28;20181;-71
2022/08/19 00:19:10;;;;;;;17.73;15.67;;;;;;;;;;4930811;28;20180;-70
2022/08/19 00:21:39;;;;;;;19.27;17.27;;;;;;;;;;4935294;28;20183;-71
2022/08/19 00:24:05;;;;;;;19.97;17.97;;;;;;;;;;4930839;29;20180;-70
2022/08/19 00:26:30;;;;;;;19.93;17.83;;;;;;;;;;4931068;28;20186;-71
2022/08/19 00:28:55;;;;;;;21.13;18.70;;;;;;;;;;4929696;29;20204;-71
2022/08/19 00:31:21;;;;;;;19.97;17.97;;;;;;;;;;4930358;28;20276;-70
2022/08/19 00:33:47;;;;;;;18.70;16.50;;;;;;;;;;4955386;28;20201;-70
2022/08/19 00:36:13;;;;;;;19.17;17.13;;;;;;;;;;4936500;28;20183;-70
2022/08/19 00:38:42;;;;;;;20.10;18.00;;;;;;;;;;4944209;29;20181;-71
2022/08/19 00:41:08;;;;;;;20.33;18.10;;;;;;;;;;4936065;28;20185;-71
2022/08/19 00:43:34;;;;;;;19.90;17.80;;;;;;;;;;4938716;29;20261;-70
2022/08/19 00:45:59;;;;;;;20.13;17.87;;;;;;;;;;4954553;28;20237;-70
2022/08/19 00:48:24;;;;;;;20.90;18.70;;;;;;;;;;4942061;28;20218;-71
2022/08/19 00:50:50;;;;;;;19.83;17.47;;;;;;;;;;4938205;29;20180;-70
2022/08/19 00:53:18;;;;;;;20.50;18.47;;;;;;;;;;4928802;29;20291;-70
2022/08/19 00:55:48;;;;;;;22.87;18.67;;;;;;;;;;4949884;28;20237;-70
2022/08/19 00:58:14;;;;;;;20.03;18.00;;;;;;;;;;4963980;28;20181;-71
2022/08/19 01:00:40;;;;;;;22.97;19.10;;;;;;;;;;4927824;29;20238;-70
2022/08/19 01:03:07;;;;;;;20.53;17.63;;;;;;;;;;4945733;28;20220;-70
2022/08/19 01:05:32;;;;;;;21.63;19.33;;;;;;;;;;4927000;29;20237;-71
2022/08/19 01:07:59;;;;;;;20.03;18.13;;;;;;;;;;4933499;29;20202;-70
2022/08/19 01:10:26;;;;;;;21.27;18.97;;;;;;;;;;4956484;28;20168;-70
2022/08/19 01:12:52;;;;;;;20.23;17.83;;;;;;;;;;4930296;29;20277;-70
2022/08/19 01:15:19;;;;;;;21.40;19.10;;;;;;;;;;4930666;28;20185;-71
2022/08/19 01:17:44;;;;;;;22.53;17.77;;;;;;;;;;4942954;28;20178;-70
2022/08/19 01:20:12;;;;;;;21.77;18.57;;;;;;;;;;4935762;28;20193;-71
2022/08/19 01:22:41;;;;;;;21.37;17.93;;;;;;;;;;4945188;28;20234;-71
2022/08/19 01:25:07;;;;;;;22.63;19.03;;;;;;;;;;4947891;28;20184;-70
2022/08/19 01:27:39;;;;;;;20.33;18.13;;;;;;;;;;4937187;29;20181;-71
2022/08/19 01:30:05;;;;;;;20.20;18.20;;;;;;;;;;4956932;28;20315;-70
2022/08/19 01:32:30;;;;;;;21.83;19.47;;;;;;;;;;4940975;28;20242;-71
2022/08/19 01:34:56;;;;;;;19.57;17.40;;;;;;;;;;4945602;28;20379;-71
2022/08/19 01:37:21;;;;;;;19.80;17.63;;;;;;;;;;4937228;28;20209;-71
2022/08/19 01:39:46;;;;;;;20.20;18.10;;;;;;;;;;4947000;28;20183;-70
2022/08/19 01:42:12;;;;;;;19.70;17.67;;;;;;;;;;4934898;28;20257;-70
2022/08/19 01:44:38;;;;;;;21.33;19.03;;;;;;;;;;4942919;28;20186;-70
2022/08/19 01:47:04;;;;;;;20.13;18.17;;;;;;;;;;4944082;28;20322;-70
2022/08/19 01:49:29;;;;;;;21.00;18.37;;;;;;;;;;4947740;28;20248;-70
2022/08/19 01:51:54;;;;;;;22.43;20.13;;;;;;;;;;4957353;28;20182;-70
2022/08/19 01:54:21;;;;;;;22.47;19.97;;;;;;;;;;4952419;28;20221;-70
2022/08/19 01:56:46;;;;;;;22.13;19.80;;;;;;;;;;4952675;28;20180;-70
2022/08/19 01:59:17;;;;;;;21.83;19.50;;;;;;;;;;4944971;28;20173;-70
2022/08/19 02:01:42;;;;;;;23.67;20.10;;;;;;;;;;4960762;28;20180;-70
2022/08/19 02:04:08;;;;;;;24.37;19.97;;;;;;;;;;4959808;28;20178;-70
2022/08/19 02:06:33;;;;;;;23.20;20.60;;;;;;;;;;4953084;28;20182;-70
2022/08/19 02:08:59;;;;;;;24.03;20.93;;;;;;;;;;4942488;28;20179;-71
2022/08/19 02:11:26;;;;;;;26.13;23.43;;;;;;;;;;4951429;28;20182;-71
2022/08/19 02:13:52;;;;;;;22.97;20.57;;;;;;;;;;4970021;28;20190;-70
2022/08/19 02:16:18;;;;;;;24.70;22.10;;;;;;;;;;4964782;28;20186;-70
2022/08/19 02:18:43;;;;;;;25.67;21.67;;;;;;;;;;4959199;28;20187;-71
2022/08/19 02:21:08;;;;;;;23.90;21.50;;;;;;;;;;4949002;28;20237;-71
2022/08/19 02:23:34;;;;;;;26.37;22.20;;;;;;;;;;4952652;28;20210;-70
2022/08/19 02:25:59;;;;;;;24.47;21.03;;;;;;;;;;4968285;28;20177;-71
2022/08/19 02:28:24;;;;;;;27.23;22.40;;;;;;;;;;4966639;28;20186;-70
2022/08/19 02:30:49;;;;;;;24.97;22.27;;;;;;;;;;4966291;28;20201;-70
2022/08/19 02:33:15;;;;;;;26.67;22.93;;;;;;;;;;4949867;28;20184;-71
2022/08/19 02:35:41;;;;;;;24.17;21.60;;;;;;;;;;4968821;28;20197;-70
2022/08/19 02:38:25;;;;;;;27.03;24.23;;;;;;;;;;4955280;28;20244;-70
2022/08/19 02:40:55;;;;;;;25.90;23.20;;;;;;;;;;4948406;28;20193;-71
2022/08/19 02:43:21;;;;;;;25.23;22.00;;;;;;;;;;4947382;28;20212;-71
2022/08/19 02:45:48;;;;;;;24.47;21.97;;;;;;;;;;4970137;28;20375;-70
2022/08/19 02:48:13;;;;;;;23.53;21.13;;;;;;;;;;4946213;28;20173;-70
2022/08/19 02:50:39;;;;;;;25.53;22.93;;;;;;;;;;4953887;28;20185;-71
2022/08/19 02:53:05;;;;;;;25.47;22.70;;;;;;;;;;4979270;28;20190;-70
2022/08/19 02:55:30;;;;;;;25.33;22.67;;;;;;;;;;4968305;28;20179;-71
2022/08/19 02:57:56;;;;;;;24.83;22.00;;;;;;;;;;4971625;28;20183;-71
2022/08/19 03:00:23;;;;;;;27.33;22.57;;;;;;;;;;4953248;28;20193;-70
2022/08/19 03:02:49;;;;;;;25.50;22.80;;;;;;;;;;4952679;28;20201;-70
2022/08/19 03:05:14;;;;;;;24.87;22.33;;;;;;;;;;4972376;28;20331;-70
2022/08/19 03:07:39;;;;;;;22.30;20.07;;;;;;;;;;4961875;28;20201;-71
2022/08/19 03:10:05;;;;;;;27.23;23.63;;;;;;;;;;4970903;28;20182;-70
2022/08/19 03:12:30;;;;;;;26.33;23.53;;;;;;;;;;4949615;28;20174;-70
2022/08/19 03:14:56;;;;;;;25.80;23.27;;;;;;;;;;4950061;28;20185;-70
2022/08/19 03:17:21;;;;;;;24.70;22.10;;;;;;;;;;4962643;28;20197;-71
2022/08/19 03:19:46;;;;;;;30.83;23.63;;;;;;;;;;4967884;28;20178;-70
2022/08/19 03:22:11;;;;;;;24.90;22.30;;;;;;;;;;4963269;28;20215;-70
2022/08/19 03:24:37;;;;;;;27.27;24.33;;;;;;;;;;4963560;28;20208;-70
2022/08/19 03:27:04;;;;;;;26.13;23.40;;;;;;;;;;4970113;28;20176;-71
2022/08/19 03:29:31;;;;;;;29.10;26.10;;;;;;;;;;4956965;28;20190;-70
2022/08/19 03:31:56;;;;;;;26.80;24.20;;;;;;;;;;4961413;28;20208;-70
2022/08/19 03:34:26;;;;;;;27.13;23.47;;;;;;;;;;4944178;28;20208;-71
2022/08/19 03:36:51;;;;;;;26.90;24.13;;;;;;;;;;4968641;28;20173;-71
2022/08/19 03:39:16;;;;;;;26.97;24.07;;;;;;;;;;4960821;28;20177;-71
2022/08/19 03:41:43;;;;;;;28.43;23.97;;;;;;;;;;4970981;28;20185;-71
2022/08/19 03:44:09;;;;;;;27.43;24.53;;;;;;;;;;4959814;28;20282;-71
2022/08/19 03:46:35;;;;;;;28.07;24.07;;;;;;;;;;4985052;28;20251;-70
2022/08/19 03:49:03;;;;;;;27.20;24.03;;;;;;;;;;4948598;28;20209;-71
2022/08/19 03:51:31;;;;;;;26.40;23.37;;;;;;;;;;4946845;28;20204;-71
2022/08/19 03:53:58;;;;;;;27.60;23.53;;;;;;;;;;4954310;28;20196;-71
2022/08/19 03:56:25;;;;;;;28.73;25.57;;;;;;;;;;4956252;28;20305;-71
2022/08/19 03:58:50;;;;;;;29.23;26.10;;;;;;;;;;4969194;28;20191;-70
2022/08/19 04:01:17;;;;;;;27.30;24.10;;;;;;;;;;4956194;28;20181;-71
2022/08/19 04:03:43;;;;;;;28.03;24.97;;;;;;;;;;4947480;28;20279;-71
2022/08/19 04:06:20;;;;;;;26.50;23.63;;;;;;;;;;4957748;28;20184;-71
2022/08/19 04:08:46;;;;;;;27.47;24.47;;;;;;;;;;4954014;28;20201;-71
2022/08/19 04:11:13;;;;;;;28.20;25.07;;;;;;;;;;4954256;28;20226;-70
2022/08/19 04:13:38;;;;;;;30.10;26.13;;;;;;;;;;4952833;28;20200;-71
2022/08/19 04:16:04;;;;;;;29.60;26.30;;;;;;;;;;4951721;28;20185;-70
2022/08/19 04:18:30;;;;;;;27.90;24.93;;;;;;;;;;4973387;28;20196;-70
2022/08/19 04:20:55;;;;;;;29.23;23.93;;;;;;;;;;4943632;28;20192;-71
2022/08/19 04:23:21;;;;;;;26.27;23.03;;;;;;;;;;4967511;28;20223;-71
2022/08/19 04:25:46;;;;;;;30.23;25.63;;;;;;;;;;4955243;28;20184;-71
2022/08/19 04:28:12;;;;;;;31.70;27.17;;;;;;;;;;4949282;28;20186;-71
2022/08/19 04:30:56;;;;;;;27.93;24.83;;;;;;;;;;4965780;28;20177;-70
2022/08/19 04:33:22;;;;;;;30.07;26.67;;;;;;;;;;4954907;28;20183;-71
2022/08/19 04:35:48;;;;;;;25.27;22.57;;;;;;;;;;4953901;28;20182;-71
2022/08/19 04:38:15;;;;;;;29.13;24.50;;;;;;;;;;4960942;28;20213;-71
2022/08/19 04:43:26;;;;;;;25.63;22.77;;;;;;;;;;4972106;28;20210;-71
2022/08/19 04:45:52;;;;;;;30.27;25.37;;;;;;;;;;4974546;28;20212;-71
2022/08/19 04:48:19;;;;;;;26.97;24.13;;;;;;;;;;4950458;28;20241;-71
2022/08/19 04:50:45;;;;;;;29.13;26.03;;;;;;;;;;4946315;28;20179;-71
2022/08/19 04:53:10;;;;;;;28.07;24.40;;;;;;;;;;4964031;28;20184;-71
2022/08/19 04:55:38;;;;;;;25.30;20.43;;;;;;;;;;4964837;28;20179;-71
2022/08/19 04:58:03;;;;;;;29.43;26.23;;;;;;;;;;4963389;28;20184;-71
2022/08/19 05:00:28;;;;;;;29.50;26.37;;;;;;;;;;4952785;28;20188;-71
2022/08/19 05:02:54;;;;;;;26.33;23.33;;;;;;;;;;4950069;28;20221;-71
2022/08/19 05:05:19;;;;;;;23.30;20.13;;;;;;;;;;4945669;28;20218;-73
2022/08/19 05:07:46;;;;;;;28.60;23.20;;;;;;;;;;4944411;28;20283;-86
2022/08/19 05:10:13;;;;;;;29.03;25.70;;;;;;;;;;4971979;28;20185;-88
2022/08/19 05:12:39;;;;;;;30.43;26.57;;;;;;;;;;4950987;28;20177;-89
2022/08/19 05:15:05;;;;;;;29.17;25.23;;;;;;;;;;4972720;28;20276;-84
2022/08/19 05:17:30;;;;;;;26.60;23.80;;;;;;;;;;4953703;28;20189;-87
2022/08/19 05:22:40;;;;;;;25.50;20.97;;;;;;;;;;4964069;28;20259;-89
2022/08/19 05:25:07;;;;;;;26.57;23.50;;;;;;;;;;4953042;28;20201;-84
2022/08/19 05:27:33;;;;;;;30.17;24.83;;;;;;;;;;4960466;28;20180;-86
2022/08/19 05:29:58;;;;;;;28.40;22.60;;;;;;;;;;4953049;28;20192;-86
2022/08/19 05:32:24;;;;;;;30.80;26.90;;;;;;;;;;4951712;28;20176;-86
2022/08/19 05:34:49;;;;;;;27.23;23.83;;;;;;;;;;4967194;28;20242;-86
2022/08/19 05:37:14;;;;;;;27.30;24.40;;;;;;;;;;4948475;28;20180;-87
2022/08/19 05:39:40;;;;;;;27.80;24.03;;;;;;;;;;4951553;28;20197;-84
2022/08/19 05:42:07;;;;;;;27.23;24.53;;;;;;;;;;4946134;28;20536;-85
2022/08/19 05:44:34;;;;;;;28.20;25.20;;;;;;;;;;4952147;28;20195;-86
2022/08/19 05:47:00;;;;;;;27.40;24.50;;;;;;;;;;4951092;28;20219;-86
2022/08/19 05:49:27;;;;;;;29.03;25.97;;;;;;;;;;4952987;28;20212;-86
2022/08/19 05:51:53;;;;;;;29.53;24.13;;;;;;;;;;4951267;28;20194;-83
2022/08/19 05:54:19;;;;;;;24.00;21.40;;;;;;;;;;4957904;28;20208;-86
2022/08/19 05:56:47;;;;;;;27.67;23.63;;;;;;;;;;4952842;28;20181;-86
2022/08/19 05:59:13;;;;;;;28.17;24.37;;;;;;;;;;4945870;28;20184;-86
2022/08/19 06:01:39;;;;;;;28.30;24.30;;;;;;;;;;4951829;28;20188;-85
2022/08/19 06:04:05;;;;;;;27.47;24.60;;;;;;;;;;4951593;28;20240;-86
2022/08/19 06:06:30;;;;;;;26.37;22.87;;;;;;;;;;4951534;28;20184;-85
2022/08/19 06:08:55;;;;;;;24.17;21.17;;;;;;;;;;4952608;28;20271;-84
2022/08/19 06:11:32;;;;;;;23.60;19.33;;;;;;;;;;4948288;28;20192;-86
2022/08/19 06:13:58;;;;;;;29.90;23.07;;;;;;;;;;4949196;28;20194;-85
2022/08/19 06:16:24;;;;;;;25.73;22.80;;;;;;;;;;4955585;28;20220;-86
2022/08/19 06:18:51;;;;;;;25.97;21.70;;;;;;;;;;4963487;28;20187;-88
2022/08/19 06:21:16;;;;;;;28.10;24.47;;;;;;;;;;4952318;28;20239;-87
2022/08/19 06:23:41;;;;;;;28.33;23.80;;;;;;;;;;4954198;28;20209;-86
2022/08/19 06:26:11;;;;;;;26.10;23.20;;;;;;;;;;4955360;28;20194;-88
2022/08/19 06:28:36;;;;;;;26.57;23.70;;;;;;;;;;4963128;28;20195;-86
2022/08/19 06:31:05;;;;;;;27.30;24.40;;;;;;;;;;4952109;28;20191;-88
2022/08/19 06:33:31;;;;;;;26.97;24.43;;;;;;;;;;4951042;28;20222;-89
2022/08/19 06:35:56;;;;;;;23.10;20.60;;;;;;;;;;4962536;28;20188;-86
2022/08/19 06:38:22;;;;;;;27.17;24.27;;;;;;;;;;4959264;28;20252;-86
2022/08/19 06:40:47;;;;;;;26.43;22.73;;;;;;;;;;4957528;28;20275;-89
2022/08/19 06:43:15;;;;;;;26.67;23.27;;;;;;;;;;4953832;28;20298;-85
2022/08/19 06:45:40;;;;;;;26.50;22.60;;;;;;;;;;4968161;28;20248;-86
2022/08/19 06:48:06;;;;;;;26.73;22.70;;;;;;;;;;4956686;28;20296;-85
2022/08/19 06:50:31;;;;;;;24.50;21.70;;;;;;;;;;4955992;28;20179;-88
2022/08/19 06:52:57;;;;;;;25.90;23.30;;;;;;;;;;4949850;28;20202;-88
2022/08/19 06:55:31;;;;;;;24.03;21.30;;;;;;;;;;4948611;28;20235;-87
2022/08/19 06:57:56;;;;;;;23.53;21.03;;;;;;;;;;4956417;28;20179;-86
2022/08/19 07:00:21;;;;;;;22.23;19.80;;;;;;;;;;4975963;28;20191;-89
2022/08/19 07:02:47;;;;;;;22.57;20.17;;;;;;;;;;4959151;28;20216;-86
2022/08/19 07:05:12;;;;;;;22.73;20.30;;;;;;;;;;4956838;28;20189;-88
2022/08/19 07:07:37;;;;;;;22.77;20.47;;;;;;;;;;4952823;28;20169;-88
2022/08/19 07:10:03;;;;;;;23.43;20.07;;;;;;;;;;4951304;28;20189;-88
2022/08/19 07:12:32;;;;;;;18.47;14.57;;;;;;;;;;4969368;28;20187;-86
2022/08/19 07:14:58;;;;;;;19.23;17.33;;;;;;;;;;4948945;28;20190;-87
2022/08/19 07:17:23;;;;;;;22.97;20.57;;;;;;;;;;4951222;28;20198;-87
2022/08/19 07:19:50;;;;;;;21.50;19.33;;;;;;;;;;4943636;28;20185;-88
2022/08/19 07:22:15;;;;;;;25.43;22.90;;;;;;;;;;4954587;28;20208;-89
2022/08/19 07:24:40;;;;;;;22.83;20.33;;;;;;;;;;4953043;28;20192;-88
2022/08/19 07:27:06;;;;;;;20.43;18.43;;;;;;;;;;4955630;28;20185;-87
2022/08/19 07:29:32;;;;;;;23.47;21.10;;;;;;;;;;4950655;28;20211;-85
2022/08/19 07:31:58;;;;;;;22.20;19.97;;;;;;;;;;4941321;28;20179;-89
2022/08/19 07:34:25;;;;;;;23.83;19.83;;;;;;;;;;4953139;28;20200;-87
2022/08/19 07:36:50;;;;;;;21.17;18.93;;;;;;;;;;4949487;28;20182;-88
2022/08/19 07:39:17;;;;;;;19.93;17.97;;;;;;;;;;4953380;28;20187;-88
2022/08/19 07:41:42;;;;;;;23.33;21.13;;;;;;;;;;4955438;28;20270;-85
2022/08/19 07:44:08;;;;;;;22.00;19.80;;;;;;;;;;4945567;28;20309;-83
2022/08/19 07:46:35;;;;;;;22.43;20.30;;;;;;;;;;4949466;28;20318;-86
2022/08/19 07:49:00;;;;;;;19.77;17.97;;;;;;;;;;4946395;28;20179;-84
2022/08/19 07:51:26;;;;;;;16.37;14.17;;;;;;;;;;4967106;28;20198;-84
2022/08/19 07:53:52;;;;;;;19.67;17.83;;;;;;;;;;4950244;28;20261;-86
2022/08/19 07:56:19;;;;;;;19.73;17.80;;;;;;;;;;4956412;28;20235;-85
2022/08/19 07:58:45;;;;;;;22.57;20.37;;;;;;;;;;4950758;28;20194;-83
2022/08/19 08:01:12;;;;;;;20.03;18.13;;;;;;;;;;4956108;28;20225;-86
2022/08/19 08:09:12;;;;;;;20.73;18.80;;;;;;;;;;4950194;28;20252;-84
2022/08/19 08:11:57;;;;;;;20.53;18.43;;;;;;;;;;4943932;28;20193;-85
2022/08/19 08:14:24;;;;;;;23.87;21.53;;;;;;;;;;4967586;28;20185;-86
2022/08/19 08:16:50;;;;;;;17.47;15.70;;;;;;;;;;4939874;29;20184;-86
2022/08/19 08:19:16;;;;;;;19.67;17.60;;;;;;;;;;4970483;28;20179;-87
2022/08/19 08:21:42;;;;;;;19.33;17.10;;;;;;;;;;4945542;28;20183;-87
2022/08/19 08:24:07;;;;;;;20.63;18.60;;;;;;;;;;4958939;28;20214;-86
2022/08/19 08:26:32;;;;;;;28.43;18.97;;;;;;;;;;4951004;28;20188;-84
2022/08/19 08:28:58;;;;;;;13.73;11.53;;;;;;;;;;4958200;28;20203;-87
2022/08/19 08:31:23;;;;;;;21.80;15.63;;;;;;;;;;4955262;28;20199;-86
2022/08/19 08:33:49;;;;;;;22.53;15.63;;;;;;;;;;4953523;28;20258;-86
2022/08/19 08:36:14;;;;;;;17.53;15.73;;;;;;;;;;4952323;28;20394;-86
2022/08/19 08:38:41;;;;;;;24.53;17.97;;;;;;;;;;4949706;28;20187;-85
2022/08/19 08:41:14;;;;;;;18.13;16.43;;;;;;;;;;4950949;28;20222;-86
2022/08/19 08:43:41;;;;;;;18.10;16.37;;;;;;;;;;4951012;28;20282;-85
2022/08/19 08:46:15;;;;;;;19.40;16.40;;;;;;;;;;4966054;28;20233;-87
2022/08/19 08:48:49;;;;;;;16.97;15.20;;;;;;;;;;4950965;28;20180;-87
2022/08/19 08:51:27;;;;;;;18.23;16.53;;;;;;;;;;4959802;28;20187;-87
2022/08/19 08:53:53;;;;;;;17.93;16.23;;;;;;;;;;4953134;28;20242;-87
2022/08/19 08:56:19;;;;;;;18.20;16.50;;;;;;;;;;4944393;28;20182;-86
2022/08/19 08:58:57;;;;;;;17.07;15.17;;;;;;;;;;4946669;28;20214;-86
2022/08/19 09:01:22;;;;;;;16.10;14.50;;;;;;;;;;4946639;28;20191;-81
2022/08/19 09:03:48;;;;;;;16.33;14.63;;;;;;;;;;4968273;28;20214;-86
2022/08/19 09:06:16;;;;;;;13.87;11.87;;;;;;;;;;4968306;28;20181;-87
2022/08/19 09:08:52;;;;;;;16.80;15.20;;;;;;;;;;4947820;28;20209;-86
2022/08/19 09:11:37;;;;;;;20.10;17.63;;;;;;;;;;4947347;28;20183;-86
2022/08/19 09:14:18;;;;;;;16.47;14.87;;;;;;;;;;4933484;28;20191;-86
2022/08/19 09:16:43;;;;;;;17.30;15.63;;;;;;;;;;4962813;28;20177;-86
2022/08/19 09:19:08;;;;;;;16.83;14.87;;;;;;;;;;4951679;28;20179;-87
2022/08/19 09:21:34;;;;;;;20.57;16.97;;;;;;;;;;4948192;28;20207;-84
2022/08/19 09:24:00;;;;;;;18.87;13.07;;;;;;;;;;4947090;28;20208;-85
2022/08/19 09:26:26;;;;;;;20.17;15.03;;;;;;;;;;4963629;28;20193;-86
2022/08/19 09:28:52;;;;;;;18.50;16.63;;;;;;;;;;4966379;28;20207;-84
2022/08/19 09:31:21;;;;;;;17.30;15.67;;;;;;;;;;4942262;28;20187;-86
2022/08/19 09:33:46;;;;;;;20.70;18.80;;;;;;;;;;4952669;28;20457;-86
2022/08/19 09:36:13;;;;;;;20.50;15.60;;;;;;;;;;4948811;28;20307;-81
2022/08/19 09:38:41;;;;;;;45.63;19.37;;;;;;;;;;4959309;28;20199;-83
2022/08/19 09:41:08;;;;;;;15.83;14.07;;;;;;;;;;4948102;28;20184;-86
2022/08/19 09:43:36;;;;;;;17.70;14.30;;;;;;;;;;4952057;28;20221;-85
2022/08/19 09:46:02;;;;;;;21.27;16.33;;;;;;;;;;4955023;28;20224;-86
2022/08/19 09:48:28;;;;;;;15.63;14.13;;;;;;;;;;4952735;28;20188;-86
2022/08/19 09:50:53;;;;;;;15.30;13.90;;;;;;;;;;4955612;28;20199;-84
2022/08/19 09:53:18;;;;;;;18.60;15.17;;;;;;;;;;4949144;28;20472;-86
2022/08/19 09:55:44;;;;;;;17.23;11.50;;;;;;;;;;4953416;28;20195;-86
2022/08/19 09:58:09;;;;;;;14.90;12.90;;;;;;;;;;4942192;28;20189;-87
2022/08/19 10:00:37;;;;;;;14.97;13.47;;;;;;;;;;4950745;28;20203;-84
2022/08/19 10:03:02;;;;;;;14.23;13.00;;;;;;;;;;4971099;28;20193;-86
2022/08/19 10:08:12;;;;;;;12.53;11.17;;;;;;;;;;4960017;28;20187;-85
2022/08/19 10:10:37;;;;;;;12.43;11.30;;;;;;;;;;4955641;28;20184;-86
2022/08/19 10:13:02;;;;;;;11.57;10.47;;;;;;;;;;4956884;28;20379;-86
2022/08/19 10:15:27;;;;;;;12.70;11.40;;;;;;;;;;4954706;28;20186;-85
2022/08/19 10:17:52;;;;;;;12.00;10.77;;;;;;;;;;4958707;28;20192;-86
2022/08/19 10:20:18;;;;;;;12.37;10.20;;;;;;;;;;4940276;28;20181;-85
2022/08/19 10:22:43;;;;;;;12.07;9.20;;;;;;;;;;4937174;28;20217;-86
2022/08/19 10:25:09;;;;;;;9.70;8.70;;;;;;;;;;4946313;28;20234;-86
2022/08/19 10:27:34;;;;;;;10.37;9.30;;;;;;;;;;4952594;28;20212;-87
2022/08/19 10:30:01;;;;;;;10.40;9.47;;;;;;;;;;4960305;28;20221;-87
2022/08/19 10:32:27;;;;;;;11.03;9.97;;;;;;;;;;4952300;28;20259;-81
2022/08/19 10:34:52;;;;;;;10.40;9.23;;;;;;;;;;4946394;28;20214;-86
2022/08/19 10:37:17;;;;;;;9.20;8.07;;;;;;;;;;4959105;28;20189;-86
2022/08/19 10:39:50;;;;;;;8.20;7.40;;;;;;;;;;4959405;28;20230;-77
2022/08/19 10:42:16;;;;;;;10.37;9.27;;;;;;;;;;4948778;28;20186;-77
2022/08/19 10:44:42;;;;;;;10.10;9.20;;;;;;;;;;4958488;28;20182;-77
2022/08/19 10:47:07;;;;;;;11.13;10.13;;;;;;;;;;4954757;28;20248;-78
2022/08/19 10:52:32;;;;;;;10.07;9.07;;;;;;;;;;4961807;28;20201;-77
2022/08/19 10:52:33;;;;;;;10.70;9.53;;;;;;;;;;4970349;28;20188;-77
2022/08/19 10:57:43;;;;;;;10.57;9.47;;;;;;;;;;4964994;28;20216;-77
2022/08/19 11:00:08;;;;;;;8.20;7.50;;;;;;;;;;4945341;28;20211;-76
2022/08/19 11:02:37;;;;;;;11.17;10.17;;;;;;;;;;4954912;28;20202;-76
2022/08/19 11:05:02;;;;;;;10.03;9.13;;;;;;;;;;4960821;28;20181;-77
2022/08/19 11:07:27;;;;;;;9.73;8.80;;;;;;;;;;4955244;28;20185;-80
2022/08/19 11:09:53;;;;;;;10.30;9.50;;;;;;;;;;4956529;28;20181;-73
2022/08/19 11:12:19;;;;;;;11.33;10.37;;;;;;;;;;4955071;28;20174;-74
2022/08/19 11:14:44;;;;;;;9.07;8.37;;;;;;;;;;4946680;29;20190;-72
2022/08/19 11:17:13;;;;;;;8.70;8.00;;;;;;;;;;4970566;28;20187;-73
2022/08/19 11:19:38;;;;;;;10.70;8.77;;;;;;;;;;4967294;28;20179;-73
2022/08/19 11:22:03;;;;;;;9.00;8.20;;;;;;;;;;4970493;28;20192;-73
2022/08/19 11:24:29;;;;;;;10.13;9.23;;;;;;;;;;4950262;28;20190;-72
2022/08/19 11:26:59;;;;;;;9.43;8.50;;;;;;;;;;4959984;28;20186;-73
2022/08/19 11:29:27;;;;;;;11.13;9.20;;;;;;;;;;4949738;28;20184;-73
2022/08/19 11:31:53;;;;;;;8.90;8.10;;;;;;;;;;4956907;28;20263;-73
2022/08/19 11:34:19;;;;;;;8.17;7.37;;;;;;;;;;4964079;28;20289;-73
2022/08/19 11:36:45;;;;;;;7.93;7.23;;;;;;;;;;4946822;28;20182;-72
2022/08/19 11:39:12;;;;;;;9.13;8.23;;;;;;;;;;4961768;28;20244;-73
2022/08/19 11:41:37;;;;;;;7.97;7.30;;;;;;;;;;4949317;28;20209;-73
2022/08/19 11:44:04;;;;;;;7.80;7.17;;;;;;;;;;4946373;28;20384;-73
2022/08/19 11:46:30;;;;;;;8.80;8.00;;;;;;;;;;4951269;28;20316;-73
2022/08/19 11:48:56;;;;;;;8.07;7.30;;;;;;;;;;4946657;28;20252;-72
2022/08/19 11:51:24;;;;;;;7.47;6.13;;;;;;;;;;4952076;28;20192;-72
2022/08/19 11:53:50;;;;;;;8.40;7.70;;;;;;;;;;4949359;28;20192;-73
2022/08/19 11:56:15;;;;;;;8.60;7.80;;;;;;;;;;4950858;28;20279;-73
2022/08/19 11:58:41;;;;;;;9.23;8.33;;;;;;;;;;4952511;28;20213;-72
2022/08/19 12:01:07;;;;;;;10.73;9.63;;;;;;;;;;4948044;28;20181;-73
2022/08/19 12:03:33;;;;;;;8.47;7.77;;;;;;;;;;4949914;28;20208;-73
2022/08/19 12:06:02;;;;;;;8.40;7.70;;;;;;;;;;4963245;28;20244;-73
2022/08/19 12:08:27;;;;;;;10.20;9.30;;;;;;;;;;4952033;28;20179;-73
2022/08/19 12:10:53;;;;;;;9.10;8.40;;;;;;;;;;4951498;28;20191;-72
2022/08/19 12:13:18;;;;;;;10.13;9.23;;;;;;;;;;4949409;28;20195;-74
2022/08/19 12:15:45;;;;;;;9.67;8.83;;;;;;;;;;4942056;28;20209;-73
2022/08/19 12:18:11;;;;;;;9.50;8.80;;;;;;;;;;4940495;28;20278;-74
2022/08/19 12:20:37;;;;;;;9.07;8.37;;;;;;;;;;4955354;28;20280;-73
2022/08/19 12:23:03;;;;;;;11.27;10.37;;;;;;;;;;4944107;28;20251;-73
2022/08/19 12:25:28;;;;;;;9.73;8.77;;;;;;;;;;4957925;28;20179;-73
2022/08/19 12:27:54;;;;;;;11.87;10.73;;;;;;;;;;4966402;28;20205;-73
2022/08/19 12:30:20;;;;;;;10.67;9.77;;;;;;;;;;4964544;28;20179;-73
2022/08/19 12:32:45;;;;;;;10.67;9.77;;;;;;;;;;4944870;28;20362;-73
2022/08/19 12:35:11;;;;;;;9.40;8.70;;;;;;;;;;4945308;28;20217;-74
2022/08/19 12:37:44;;;;;;;12.40;11.30;;;;;;;;;;4968029;28;20177;-73
2022/08/19 12:40:20;;;;;;;10.83;9.93;;;;;;;;;;4944139;28;20285;-74
2022/08/19 12:43:11;;;;;;;10.90;10.03;;;;;;;;;;4933194;29;20228;-81
2022/08/19 12:45:37;;;;;;;12.13;10.83;;;;;;;;;;4920175;29;20186;-79
2022/08/19 12:48:02;;;;;;;9.93;8.90;;;;;;;;;;4918472;29;20197;-81
2022/08/19 12:50:28;;;;;;;11.20;10.30;;;;;;;;;;4916241;29;20185;-79
2022/08/19 12:52:53;;;;;;;10.97;10.00;;;;;;;;;;4918089;29;20193;-80
2022/08/19 12:55:18;;;;;;;10.77;9.83;;;;;;;;;;4938380;28;20200;-80
2022/08/19 12:57:44;;;;;;;11.40;10.50;;;;;;;;;;4936593;28;20196;-80
2022/08/19 13:00:14;;;;;;;10.53;9.73;;;;;;;;;;4935548;29;20287;-79
2022/08/19 13:02:41;;;;;;;10.20;9.30;;;;;;;;;;4944294;28;20219;-80
2022/08/19 13:05:08;;;;;;;10.90;10.10;;;;;;;;;;4914377;29;20182;-80
2022/08/19 13:07:33;;;;;;;11.37;10.47;;;;;;;;;;4920141;29;20187;-80
2022/08/19 13:09:59;;;;;;;9.30;8.60;;;;;;;;;;4933776;28;20265;-80
2022/08/19 13:12:26;;;;;;;11.30;10.43;;;;;;;;;;4932259;29;20192;-79
2022/08/19 13:14:52;;;;;;;10.77;9.90;;;;;;;;;;4919757;29;20192;-80
2022/08/19 13:17:17;;;;;;;10.23;9.30;;;;;;;;;;4928224;28;20181;-80
2022/08/19 13:19:42;;;;;;;12.13;11.10;;;;;;;;;;4910883;29;20275;-79
2022/08/19 13:22:07;;;;;;;12.30;11.10;;;;;;;;;;4931969;29;20328;-80
2022/08/19 13:24:33;;;;;;;10.93;10.10;;;;;;;;;;4930634;29;20208;-80
2022/08/19 13:26:58;;;;;;;10.73;9.73;;;;;;;;;;4914269;29;20200;-80
2022/08/19 13:34:51;;;;;;;11.53;10.63;;;;;;;;;;4933900;29;20215;-79
2022/08/19 13:37:40;;;;;;;12.03;10.97;;;;;;;;;;4911947;29;20181;-80
2022/08/19 13:40:02;;;;;;;11.47;10.57;;;;;;;;;;4931690;29;20250;-80
2022/08/19 13:42:29;;;;;;;11.37;10.47;;;;;;;;;;4906901;29;20245;-79
2022/08/19 13:44:54;;;;;;;12.20;11.23;;;;;;;;;;4909289;29;20197;-80
2022/08/19 13:47:20;;;;;;;11.43;10.60;;;;;;;;;;4920200;29;20183;-80
2022/08/19 13:49:45;;;;;;;12.57;11.33;;;;;;;;;;4916459;29;20193;-80
2022/08/19 13:52:11;;;;;;;12.40;11.20;;;;;;;;;;4926011;29;20184;-80
2022/08/19 13:54:36;;;;;;;12.00;10.90;;;;;;;;;;4912081;29;20267;-80
2022/08/19 13:57:01;;;;;;;11.80;10.90;;;;;;;;;;4912792;29;20239;-80
2022/08/19 13:59:26;;;;;;;12.30;11.10;;;;;;;;;;4911498;29;20192;-79
2022/08/19 14:01:53;;;;;;;11.43;10.47;;;;;;;;;;4907496;29;20189;-80
2022/08/19 14:04:18;;;;;;;11.70;10.67;;;;;;;;;;4931046;29;20210;-80
2022/08/19 14:06:43;;;;;;;12.17;11.20;;;;;;;;;;4930047;29;20195;-79
2022/08/19 14:09:08;;;;;;;10.90;9.90;;;;;;;;;;4912579;29;20376;-80
2022/08/19 14:11:34;;;;;;;11.97;11.03;;;;;;;;;;4929573;29;20183;-80
2022/08/19 14:13:59;;;;;;;11.47;10.57;;;;;;;;;;4907089;29;20280;-79
2022/08/19 14:16:24;;;;;;;10.67;9.87;;;;;;;;;;4916649;29;20190;-81
2022/08/19 14:18:50;;;;;;;10.43;9.73;;;;;;;;;;4916382;29;20221;-80
2022/08/19 14:21:17;;;;;;;10.20;9.40;;;;;;;;;;4914117;29;20174;-80
2022/08/19 14:23:42;;;;;;;10.30;9.40;;;;;;;;;;4926853;29;20269;-81
2022/08/19 14:26:09;;;;;;;9.70;8.90;;;;;;;;;;4918408;29;20272;-80
2022/08/19 14:28:35;;;;;;;10.80;9.80;;;;;;;;;;4928041;29;20190;-80
2022/08/19 14:31:00;;;;;;;10.37;9.47;;;;;;;;;;4905318;29;20241;-80
2022/08/19 14:33:25;;;;;;;10.60;9.53;;;;;;;;;;4931862;29;20207;-79
2022/08/19 14:35:51;;;;;;;10.23;9.23;;;;;;;;;;4918475;29;20281;-80
2022/08/19 14:38:17;;;;;;;10.07;9.27;;;;;;;;;;4916364;29;20193;-80
2022/08/19 14:40:42;;;;;;;9.63;8.87;;;;;;;;;;4925517;29;20217;-80